sensor_id;sensor_type;location;lat;lon;timestamp;P1;durP1;ratioP1;P2;durP2;ratioP2
5553;SDS011;2800;49.528;8.666;2022-12-07T00:01:14;18.20;;;14.23;;
5553;SDS011;2800;49.528;8.666;2022-12-07T00:03:41;19.63;;;14.63;;
5553;SDS011;2800;49.528;8.666;2022-12-07T00:06:08;18.00;;;14.00;;
5553;SDS011;2800;49.528;8.666;2022-12-07T00:08:35;18.60;;;13.63;;
5553;SDS011;2800;49.528;8.666;2022-12-07T00:11:11;19.07;;;14.33;;
5553;SDS011;2800;49.528;8.666;2022-12-07T00:13:39;21.40;;;13.23;;
5553;SDS011;2800;49.528;8.666;2022-12-07T00:16:09;18.60;;;14.50;;
5553;SDS011;2800;49.528;8.666;2022-12-07T00:18:39;22.90;;;15.13;;
5553;SDS011;2800;49.528;8.666;2022-12-07T00:23:36;17.07;;;12.70;;
5553;SDS011;2800;49.528;8.666;2022-12-07T00:26:20;25.90;;;19.10;;
5553;SDS011;2800;49.528;8.666;2022-12-07T00:28:49;22.63;;;15.70;;
5553;SDS011;2800;49.528;8.666;2022-12-07T00:31:20;24.03;;;18.00;;
5553;SDS011;2800;49.528;8.666;2022-12-07T00:33:46;23.17;;;14.90;;
5553;SDS011;2800;49.528;8.666;2022-12-07T00:36:13;23.63;;;18.10;;
5553;SDS011;2800;49.528;8.666;2022-12-07T00:38:41;26.40;;;17.37;;
5553;SDS011;2800;49.528;8.666;2022-12-07T00:41:08;22.73;;;16.13;;
5553;SDS011;2800;49.528;8.666;2022-12-07T00:43:36;46.80;;;20.20;;
5553;SDS011;2800;49.528;8.666;2022-12-07T00:46:01;27.90;;;16.17;;
5553;SDS011;2800;49.528;8.666;2022-12-07T00:48:27;28.00;;;20.87;;
5553;SDS011;2800;49.528;8.666;2022-12-07T00:50:52;28.50;;;20.73;;
5553;SDS011;2800;49.528;8.666;2022-12-07T00:53:18;32.80;;;26.03;;
5553;SDS011;2800;49.528;8.666;2022-12-07T00:55:44;59.63;;;35.50;;
5553;SDS011;2800;49.528;8.666;2022-12-07T00:58:10;36.53;;;22.93;;
5553;SDS011;2800;49.528;8.666;2022-12-07T01:00:37;33.03;;;25.00;;
5553;SDS011;2800;49.528;8.666;2022-12-07T01:03:05;24.53;;;18.30;;
5553;SDS011;2800;49.528;8.666;2022-12-07T01:05:32;19.67;;;14.53;;
5553;SDS011;2800;49.528;8.666;2022-12-07T01:07:57;19.50;;;14.20;;
5553;SDS011;2800;49.528;8.666;2022-12-07T01:10:23;20.67;;;14.03;;
5553;SDS011;2800;49.528;8.666;2022-12-07T01:12:49;25.20;;;18.03;;
5553;SDS011;2800;49.528;8.666;2022-12-07T01:15:14;19.70;;;14.80;;
5553;SDS011;2800;49.528;8.666;2022-12-07T01:17:40;23.23;;;16.10;;
5553;SDS011;2800;49.528;8.666;2022-12-07T01:20:06;23.30;;;16.60;;
5553;SDS011;2800;49.528;8.666;2022-12-07T01:22:36;24.00;;;16.20;;
5553;SDS011;2800;49.528;8.666;2022-12-07T01:25:06;27.13;;;18.90;;
5553;SDS011;2800;49.528;8.666;2022-12-07T01:27:32;23.33;;;16.20;;
5553;SDS011;2800;49.528;8.666;2022-12-07T01:29:59;19.83;;;13.87;;
5553;SDS011;2800;49.528;8.666;2022-12-07T01:32:25;22.60;;;16.43;;
5553;SDS011;2800;49.528;8.666;2022-12-07T01:34:51;23.87;;;14.73;;
5553;SDS011;2800;49.528;8.666;2022-12-07T01:37:16;21.43;;;14.80;;
5553;SDS011;2800;49.528;8.666;2022-12-07T01:39:42;25.47;;;17.20;;
5553;SDS011;2800;49.528;8.666;2022-12-07T01:42:10;24.47;;;17.67;;
5553;SDS011;2800;49.528;8.666;2022-12-07T01:47:40;24.93;;;18.57;;
5553;SDS011;2800;49.528;8.666;2022-12-07T01:50:08;25.63;;;18.23;;
5553;SDS011;2800;49.528;8.666;2022-12-07T01:52:34;25.17;;;17.87;;
5553;SDS011;2800;49.528;8.666;2022-12-07T01:55:03;29.00;;;19.80;;
5553;SDS011;2800;49.528;8.666;2022-12-07T01:57:32;22.83;;;16.07;;
5553;SDS011;2800;49.528;8.666;2022-12-07T02:00:02;21.40;;;15.60;;
5553;SDS011;2800;49.528;8.666;2022-12-07T02:02:31;18.03;;;14.07;;
5553;SDS011;2800;49.528;8.666;2022-12-07T02:05:00;20.80;;;14.17;;
5553;SDS011;2800;49.528;8.666;2022-12-07T02:07:28;20.63;;;14.77;;
5553;SDS011;2800;49.528;8.666;2022-12-07T02:09:56;24.10;;;16.20;;
5553;SDS011;2800;49.528;8.666;2022-12-07T02:12:21;24.07;;;14.97;;
5553;SDS011;2800;49.528;8.666;2022-12-07T02:14:49;24.00;;;16.17;;
5553;SDS011;2800;49.528;8.666;2022-12-07T02:22:36;25.47;;;16.23;;
5553;SDS011;2800;49.528;8.666;2022-12-07T02:28:06;21.60;;;16.43;;
5553;SDS011;2800;49.528;8.666;2022-12-07T02:30:57;25.73;;;16.00;;
5553;SDS011;2800;49.528;8.666;2022-12-07T02:33:31;22.53;;;15.70;;
5553;SDS011;2800;49.528;8.666;2022-12-07T02:36:02;22.20;;;15.33;;
5553;SDS011;2800;49.528;8.666;2022-12-07T02:38:37;23.97;;;16.63;;
5553;SDS011;2800;49.528;8.666;2022-12-07T02:41:31;24.33;;;17.23;;
5553;SDS011;2800;49.528;8.666;2022-12-07T02:44:02;22.63;;;15.53;;
5553;SDS011;2800;49.528;8.666;2022-12-07T02:46:32;20.60;;;15.97;;
5553;SDS011;2800;49.528;8.666;2022-12-07T02:49:02;23.50;;;15.93;;
5553;SDS011;2800;49.528;8.666;2022-12-07T02:51:31;22.20;;;16.27;;
5553;SDS011;2800;49.528;8.666;2022-12-07T02:53:58;21.27;;;16.10;;
5553;SDS011;2800;49.528;8.666;2022-12-07T02:56:34;21.53;;;16.10;;
5553;SDS011;2800;49.528;8.666;2022-12-07T03:04:52;20.80;;;14.10;;
5553;SDS011;2800;49.528;8.666;2022-12-07T03:18:21;19.47;;;14.60;;
5553;SDS011;2800;49.528;8.666;2022-12-07T03:20:50;21.20;;;13.70;;
5553;SDS011;2800;49.528;8.666;2022-12-07T03:23:18;24.50;;;14.73;;
5553;SDS011;2800;49.528;8.666;2022-12-07T03:25:47;18.70;;;14.03;;
5553;SDS011;2800;49.528;8.666;2022-12-07T03:28:17;21.07;;;15.03;;
5553;SDS011;2800;49.528;8.666;2022-12-07T03:30:47;18.20;;;14.17;;
5553;SDS011;2800;49.528;8.666;2022-12-07T03:33:21;21.57;;;14.97;;
5553;SDS011;2800;49.528;8.666;2022-12-07T03:35:52;18.47;;;13.63;;
5553;SDS011;2800;49.528;8.666;2022-12-07T03:38:29;17.30;;;13.00;;
5553;SDS011;2800;49.528;8.666;2022-12-07T03:41:04;21.60;;;13.70;;
5553;SDS011;2800;49.528;8.666;2022-12-07T03:43:34;17.80;;;13.70;;
5553;SDS011;2800;49.528;8.666;2022-12-07T03:46:06;18.00;;;13.20;;
5553;SDS011;2800;49.528;8.666;2022-12-07T03:48:54;22.33;;;12.90;;
5553;SDS011;2800;49.528;8.666;2022-12-07T03:51:24;16.17;;;12.47;;
5553;SDS011;2800;49.528;8.666;2022-12-07T03:54:29;18.00;;;12.17;;
5553;SDS011;2800;49.528;8.666;2022-12-07T03:57:06;17.00;;;12.73;;
5553;SDS011;2800;49.528;8.666;2022-12-07T03:59:34;15.87;;;11.13;;
5553;SDS011;2800;49.528;8.666;2022-12-07T04:02:01;16.23;;;11.70;;
5553;SDS011;2800;49.528;8.666;2022-12-07T04:04:29;16.97;;;11.40;;
5553;SDS011;2800;49.528;8.666;2022-12-07T04:06:55;15.83;;;11.57;;
5553;SDS011;2800;49.528;8.666;2022-12-07T04:09:21;15.87;;;11.80;;
5553;SDS011;2800;49.528;8.666;2022-12-07T04:11:46;15.20;;;11.23;;
5553;SDS011;2800;49.528;8.666;2022-12-07T04:14:12;14.40;;;10.67;;
5553;SDS011;2800;49.528;8.666;2022-12-07T04:16:56;18.37;;;11.20;;
5553;SDS011;2800;49.528;8.666;2022-12-07T04:19:23;16.87;;;11.90;;
5553;SDS011;2800;49.528;8.666;2022-12-07T04:21:51;17.43;;;12.07;;
5553;SDS011;2800;49.528;8.666;2022-12-07T04:24:17;14.97;;;12.13;;
5553;SDS011;2800;49.528;8.666;2022-12-07T04:26:43;16.00;;;11.70;;
5553;SDS011;2800;49.528;8.666;2022-12-07T04:29:09;16.20;;;10.93;;
5553;SDS011;2800;49.528;8.666;2022-12-07T04:31:36;14.57;;;11.03;;
5553;SDS011;2800;49.528;8.666;2022-12-07T04:34:02;15.33;;;12.03;;
5553;SDS011;2800;49.528;8.666;2022-12-07T04:36:27;15.17;;;11.87;;
5553;SDS011;2800;49.528;8.666;2022-12-07T04:38:53;15.83;;;12.00;;
5553;SDS011;2800;49.528;8.666;2022-12-07T04:41:19;15.50;;;11.87;;
5553;SDS011;2800;49.528;8.666;2022-12-07T04:43:51;16.70;;;12.37;;
5553;SDS011;2800;49.528;8.666;2022-12-07T04:46:18;16.97;;;11.80;;
5553;SDS011;2800;49.528;8.666;2022-12-07T04:48:44;17.47;;;11.70;;
5553;SDS011;2800;49.528;8.666;2022-12-07T04:51:09;19.00;;;12.20;;
5553;SDS011;2800;49.528;8.666;2022-12-07T04:53:35;15.90;;;12.83;;
5553;SDS011;2800;49.528;8.666;2022-12-07T04:56:00;14.63;;;10.93;;
5553;SDS011;2800;49.528;8.666;2022-12-07T04:58:26;14.63;;;11.00;;
5553;SDS011;2800;49.528;8.666;2022-12-07T05:00:53;14.30;;;10.57;;
5553;SDS011;2800;49.528;8.666;2022-12-07T05:03:20;17.33;;;11.40;;
5553;SDS011;2800;49.528;8.666;2022-12-07T05:05:46;17.20;;;11.00;;
5553;SDS011;2800;49.528;8.666;2022-12-07T05:08:11;19.03;;;11.83;;
5553;SDS011;2800;49.528;8.666;2022-12-07T05:10:37;17.07;;;12.77;;
5553;SDS011;2800;49.528;8.666;2022-12-07T05:13:02;17.23;;;12.63;;
5553;SDS011;2800;49.528;8.666;2022-12-07T05:15:28;20.37;;;13.93;;
5553;SDS011;2800;49.528;8.666;2022-12-07T05:17:53;20.43;;;14.33;;
5553;SDS011;2800;49.528;8.666;2022-12-07T05:20:19;21.17;;;14.93;;
5553;SDS011;2800;49.528;8.666;2022-12-07T05:22:44;20.97;;;14.80;;
5553;SDS011;2800;49.528;8.666;2022-12-07T05:25:10;21.43;;;13.77;;
5553;SDS011;2800;49.528;8.666;2022-12-07T05:27:35;17.77;;;14.17;;
5553;SDS011;2800;49.528;8.666;2022-12-07T05:30:01;19.50;;;14.83;;
5553;SDS011;2800;49.528;8.666;2022-12-07T05:32:27;18.37;;;12.90;;
5553;SDS011;2800;49.528;8.666;2022-12-07T05:34:52;18.20;;;12.37;;
5553;SDS011;2800;49.528;8.666;2022-12-07T05:37:19;17.20;;;13.10;;
5553;SDS011;2800;49.528;8.666;2022-12-07T05:39:45;19.07;;;13.27;;
5553;SDS011;2800;49.528;8.666;2022-12-07T05:42:10;18.47;;;13.00;;
5553;SDS011;2800;49.528;8.666;2022-12-07T05:44:42;15.77;;;12.50;;
5553;SDS011;2800;49.528;8.666;2022-12-07T05:47:09;18.40;;;12.00;;
5553;SDS011;2800;49.528;8.666;2022-12-07T05:49:36;17.23;;;12.83;;
5553;SDS011;2800;49.528;8.666;2022-12-07T05:52:02;18.27;;;13.57;;
5553;SDS011;2800;49.528;8.666;2022-12-07T05:54:27;20.70;;;14.50;;
5553;SDS011;2800;49.528;8.666;2022-12-07T05:56:53;32.07;;;23.47;;
5553;SDS011;2800;49.528;8.666;2022-12-07T05:59:19;36.73;;;27.50;;
5553;SDS011;2800;49.528;8.666;2022-12-07T06:01:48;21.67;;;14.90;;
5553;SDS011;2800;49.528;8.666;2022-12-07T06:04:18;19.60;;;13.17;;
5553;SDS011;2800;49.528;8.666;2022-12-07T06:06:44;18.93;;;13.60;;
5553;SDS011;2800;49.528;8.666;2022-12-07T06:09:10;18.23;;;13.63;;
5553;SDS011;2800;49.528;8.666;2022-12-07T06:11:35;16.23;;;11.70;;
5553;SDS011;2800;49.528;8.666;2022-12-07T06:14:20;15.30;;;10.70;;
5553;SDS011;2800;49.528;8.666;2022-12-07T06:16:46;18.17;;;12.47;;
5553;SDS011;2800;49.528;8.666;2022-12-07T06:19:12;16.40;;;12.57;;
5553;SDS011;2800;49.528;8.666;2022-12-07T06:21:37;14.43;;;10.10;;
5553;SDS011;2800;49.528;8.666;2022-12-07T06:24:03;16.40;;;10.60;;
5553;SDS011;2800;49.528;8.666;2022-12-07T06:26:29;16.80;;;10.97;;
5553;SDS011;2800;49.528;8.666;2022-12-07T06:28:54;23.80;;;11.33;;
5553;SDS011;2800;49.528;8.666;2022-12-07T06:31:20;16.40;;;11.47;;
5553;SDS011;2800;49.528;8.666;2022-12-07T06:33:45;16.33;;;11.83;;
5553;SDS011;2800;49.528;8.666;2022-12-07T06:36:11;16.33;;;12.20;;
5553;SDS011;2800;49.528;8.666;2022-12-07T06:38:36;17.50;;;11.50;;
5553;SDS011;2800;49.528;8.666;2022-12-07T06:41:02;17.17;;;12.50;;
5553;SDS011;2800;49.528;8.666;2022-12-07T06:43:29;20.30;;;12.10;;
5553;SDS011;2800;49.528;8.666;2022-12-07T06:45:54;16.80;;;12.17;;
5553;SDS011;2800;49.528;8.666;2022-12-07T06:48:20;19.43;;;13.23;;
5553;SDS011;2800;49.528;8.666;2022-12-07T06:50:46;19.20;;;11.77;;
5553;SDS011;2800;49.528;8.666;2022-12-07T06:53:12;17.23;;;12.37;;
5553;SDS011;2800;49.528;8.666;2022-12-07T06:55:38;17.40;;;12.97;;
5553;SDS011;2800;49.528;8.666;2022-12-07T06:58:04;18.10;;;12.60;;
5553;SDS011;2800;49.528;8.666;2022-12-07T07:00:29;16.90;;;13.07;;
5553;SDS011;2800;49.528;8.666;2022-12-07T07:02:55;19.37;;;13.40;;
5553;SDS011;2800;49.528;8.666;2022-12-07T07:05:21;18.50;;;13.90;;
5553;SDS011;2800;49.528;8.666;2022-12-07T07:07:47;18.73;;;13.70;;
5553;SDS011;2800;49.528;8.666;2022-12-07T07:10:13;20.07;;;14.77;;
5553;SDS011;2800;49.528;8.666;2022-12-07T07:12:39;20.43;;;15.63;;
5553;SDS011;2800;49.528;8.666;2022-12-07T07:15:05;19.67;;;13.57;;
5553;SDS011;2800;49.528;8.666;2022-12-07T07:17:31;17.63;;;13.73;;
5553;SDS011;2800;49.528;8.666;2022-12-07T07:19:56;19.00;;;14.20;;
5553;SDS011;2800;49.528;8.666;2022-12-07T07:22:22;20.60;;;14.40;;
5553;SDS011;2800;49.528;8.666;2022-12-07T07:24:47;18.37;;;14.37;;
5553;SDS011;2800;49.528;8.666;2022-12-07T07:27:13;18.57;;;14.30;;
5553;SDS011;2800;49.528;8.666;2022-12-07T07:29:38;19.97;;;14.53;;
5553;SDS011;2800;49.528;8.666;2022-12-07T07:32:04;19.70;;;15.23;;
5553;SDS011;2800;49.528;8.666;2022-12-07T07:34:29;19.77;;;14.40;;
5553;SDS011;2800;49.528;8.666;2022-12-07T07:36:55;19.83;;;14.60;;
5553;SDS011;2800;49.528;8.666;2022-12-07T07:39:20;19.30;;;15.00;;
5553;SDS011;2800;49.528;8.666;2022-12-07T07:41:46;18.97;;;14.37;;
5553;SDS011;2800;49.528;8.666;2022-12-07T07:44:12;20.73;;;14.83;;
5553;SDS011;2800;49.528;8.666;2022-12-07T07:46:37;23.60;;;16.13;;
5553;SDS011;2800;49.528;8.666;2022-12-07T07:49:03;20.60;;;15.10;;
5553;SDS011;2800;49.528;8.666;2022-12-07T07:51:28;20.77;;;15.90;;
5553;SDS011;2800;49.528;8.666;2022-12-07T07:53:54;22.03;;;16.13;;
5553;SDS011;2800;49.528;8.666;2022-12-07T07:56:19;20.50;;;14.80;;
5553;SDS011;2800;49.528;8.666;2022-12-07T07:58:45;20.00;;;15.57;;
5553;SDS011;2800;49.528;8.666;2022-12-07T08:01:11;21.60;;;15.97;;
5553;SDS011;2800;49.528;8.666;2022-12-07T08:03:38;23.43;;;16.30;;
5553;SDS011;2800;49.528;8.666;2022-12-07T08:06:03;22.70;;;16.50;;
5553;SDS011;2800;49.528;8.666;2022-12-07T08:08:29;23.00;;;14.37;;
5553;SDS011;2800;49.528;8.666;2022-12-07T08:10:55;17.17;;;14.20;;
5553;SDS011;2800;49.528;8.666;2022-12-07T08:13:21;20.60;;;14.80;;
5553;SDS011;2800;49.528;8.666;2022-12-07T08:15:47;21.60;;;15.80;;
5553;SDS011;2800;49.528;8.666;2022-12-07T08:18:13;22.50;;;15.63;;
5553;SDS011;2800;49.528;8.666;2022-12-07T08:20:39;21.53;;;14.73;;
5553;SDS011;2800;49.528;8.666;2022-12-07T08:23:06;21.20;;;16.30;;
5553;SDS011;2800;49.528;8.666;2022-12-07T08:25:32;20.27;;;16.10;;
5553;SDS011;2800;49.528;8.666;2022-12-07T08:27:58;27.33;;;16.13;;
5553;SDS011;2800;49.528;8.666;2022-12-07T08:30:25;24.43;;;17.97;;
5553;SDS011;2800;49.528;8.666;2022-12-07T08:32:51;25.60;;;17.43;;
5553;SDS011;2800;49.528;8.666;2022-12-07T08:35:16;21.53;;;16.63;;
5553;SDS011;2800;49.528;8.666;2022-12-07T08:37:42;24.80;;;19.83;;
5553;SDS011;2800;49.528;8.666;2022-12-07T08:40:08;30.23;;;20.67;;
5553;SDS011;2800;49.528;8.666;2022-12-07T08:42:39;24.43;;;17.03;;
5553;SDS011;2800;49.528;8.666;2022-12-07T08:45:07;24.63;;;17.20;;
5553;SDS011;2800;49.528;8.666;2022-12-07T08:47:35;22.27;;;15.57;;
5553;SDS011;2800;49.528;8.666;2022-12-07T08:50:04;26.17;;;17.70;;
5553;SDS011;2800;49.528;8.666;2022-12-07T08:52:32;33.53;;;21.90;;
5553;SDS011;2800;49.528;8.666;2022-12-07T08:54:59;20.27;;;16.07;;
5553;SDS011;2800;49.528;8.666;2022-12-07T08:57:26;70.13;;;42.60;;
5553;SDS011;2800;49.528;8.666;2022-12-07T08:59:52;34.03;;;24.90;;
5553;SDS011;2800;49.528;8.666;2022-12-07T09:02:18;22.97;;;17.20;;
5553;SDS011;2800;49.528;8.666;2022-12-07T09:04:43;25.67;;;19.20;;
5553;SDS011;2800;49.528;8.666;2022-12-07T09:07:09;21.40;;;15.13;;
5553;SDS011;2800;49.528;8.666;2022-12-07T09:09:34;24.03;;;16.50;;
5553;SDS011;2800;49.528;8.666;2022-12-07T09:12:00;23.20;;;17.27;;
5553;SDS011;2800;49.528;8.666;2022-12-07T09:14:25;26.90;;;20.23;;
5553;SDS011;2800;49.528;8.666;2022-12-07T09:16:51;22.77;;;17.33;;
5553;SDS011;2800;49.528;8.666;2022-12-07T09:19:16;21.10;;;16.50;;
5553;SDS011;2800;49.528;8.666;2022-12-07T09:21:42;25.47;;;16.90;;
5553;SDS011;2800;49.528;8.666;2022-12-07T09:24:07;23.93;;;16.47;;
5553;SDS011;2800;49.528;8.666;2022-12-07T09:26:34;21.40;;;16.47;;
5553;SDS011;2800;49.528;8.666;2022-12-07T09:29:00;24.27;;;18.03;;
5553;SDS011;2800;49.528;8.666;2022-12-07T09:31:26;24.20;;;16.87;;
5553;SDS011;2800;49.528;8.666;2022-12-07T09:33:53;23.60;;;16.90;;
5553;SDS011;2800;49.528;8.666;2022-12-07T09:36:25;23.67;;;17.40;;
5553;SDS011;2800;49.528;8.666;2022-12-07T09:38:51;25.43;;;18.23;;
5553;SDS011;2800;49.528;8.666;2022-12-07T09:41:17;25.13;;;19.17;;
5553;SDS011;2800;49.528;8.666;2022-12-07T09:43:43;21.20;;;16.40;;
5553;SDS011;2800;49.528;8.666;2022-12-07T09:46:12;25.30;;;19.70;;
5553;SDS011;2800;49.528;8.666;2022-12-07T09:48:40;26.80;;;19.80;;
5553;SDS011;2800;49.528;8.666;2022-12-07T09:51:13;26.33;;;19.20;;
5553;SDS011;2800;49.528;8.666;2022-12-07T09:53:39;26.40;;;20.40;;
5553;SDS011;2800;49.528;8.666;2022-12-07T09:56:08;23.77;;;19.53;;
5553;SDS011;2800;49.528;8.666;2022-12-07T09:58:38;24.07;;;18.10;;
5553;SDS011;2800;49.528;8.666;2022-12-07T10:03:33;22.53;;;17.83;;
5553;SDS011;2800;49.528;8.666;2022-12-07T10:06:02;27.97;;;22.10;;
5553;SDS011;2800;49.528;8.666;2022-12-07T10:08:28;32.10;;;24.60;;
5553;SDS011;2800;49.528;8.666;2022-12-07T10:10:54;32.80;;;23.10;;
5553;SDS011;2800;49.528;8.666;2022-12-07T10:13:37;26.57;;;20.37;;
5553;SDS011;2800;49.528;8.666;2022-12-07T10:18:56;31.00;;;20.10;;
5553;SDS011;2800;49.528;8.666;2022-12-07T10:21:28;24.77;;;18.97;;
5553;SDS011;2800;49.528;8.666;2022-12-07T10:24:13;25.40;;;18.03;;
5553;SDS011;2800;49.528;8.666;2022-12-07T10:26:50;35.20;;;20.17;;
5553;SDS011;2800;49.528;8.666;2022-12-07T10:29:24;28.53;;;22.17;;
5553;SDS011;2800;49.528;8.666;2022-12-07T10:31:57;27.03;;;19.57;;
5553;SDS011;2800;49.528;8.666;2022-12-07T10:34:32;28.97;;;22.53;;
5553;SDS011;2800;49.528;8.666;2022-12-07T10:42:20;31.07;;;23.33;;
5553;SDS011;2800;49.528;8.666;2022-12-07T10:55:41;23.53;;;19.87;;
5553;SDS011;2800;49.528;8.666;2022-12-07T10:58:19;25.80;;;18.30;;
5553;SDS011;2800;49.528;8.666;2022-12-07T11:06:31;31.67;;;19.20;;
5553;SDS011;2800;49.528;8.666;2022-12-07T11:09:19;24.00;;;18.93;;
5553;SDS011;2800;49.528;8.666;2022-12-07T11:15:04;26.13;;;21.13;;
5553;SDS011;2800;49.528;8.666;2022-12-07T11:17:54;28.47;;;21.40;;
5553;SDS011;2800;49.528;8.666;2022-12-07T11:20:29;25.70;;;18.83;;
5553;SDS011;2800;49.528;8.666;2022-12-07T11:23:16;37.50;;;24.27;;
5553;SDS011;2800;49.528;8.666;2022-12-07T11:26:09;28.90;;;21.43;;
5553;SDS011;2800;49.528;8.666;2022-12-07T11:28:47;28.67;;;21.50;;
5553;SDS011;2800;49.528;8.666;2022-12-07T11:31:24;27.40;;;20.73;;
5553;SDS011;2800;49.528;8.666;2022-12-07T11:34:08;29.90;;;22.53;;
5553;SDS011;2800;49.528;8.666;2022-12-07T11:36:45;30.77;;;23.80;;
5553;SDS011;2800;49.528;8.666;2022-12-07T11:39:19;32.20;;;24.40;;
5553;SDS011;2800;49.528;8.666;2022-12-07T11:42:01;34.00;;;26.07;;
5553;SDS011;2800;49.528;8.666;2022-12-07T11:44:55;31.10;;;24.70;;
5553;SDS011;2800;49.528;8.666;2022-12-07T11:47:29;27.77;;;23.50;;
5553;SDS011;2800;49.528;8.666;2022-12-07T11:50:13;33.37;;;24.93;;
5553;SDS011;2800;49.528;8.666;2022-12-07T11:55:35;27.63;;;19.93;;
5553;SDS011;2800;49.528;8.666;2022-12-07T11:58:24;31.03;;;23.27;;
5553;SDS011;2800;49.528;8.666;2022-12-07T12:01:24;27.93;;;20.10;;
5553;SDS011;2800;49.528;8.666;2022-12-07T12:06:39;24.00;;;19.37;;
5553;SDS011;2800;49.528;8.666;2022-12-07T12:11:48;38.20;;;30.83;;
5553;SDS011;2800;49.528;8.666;2022-12-07T12:14:42;33.43;;;25.70;;
5553;SDS011;2800;49.528;8.666;2022-12-07T12:17:31;24.90;;;20.60;;
5553;SDS011;2800;49.528;8.666;2022-12-07T12:22:46;25.73;;;18.73;;
5553;SDS011;2800;49.528;8.666;2022-12-07T12:27:52;24.83;;;20.23;;
5553;SDS011;2800;49.528;8.666;2022-12-07T12:30:25;26.73;;;20.33;;
5553;SDS011;2800;49.528;8.666;2022-12-07T12:33:13;22.80;;;18.10;;
5553;SDS011;2800;49.528;8.666;2022-12-07T12:35:44;27.47;;;19.57;;
5553;SDS011;2800;49.528;8.666;2022-12-07T12:40:56;23.80;;;18.00;;
5553;SDS011;2800;49.528;8.666;2022-12-07T12:48:55;25.10;;;18.03;;
5553;SDS011;2800;49.528;8.666;2022-12-07T12:51:40;22.87;;;16.63;;
5553;SDS011;2800;49.528;8.666;2022-12-07T12:54:14;20.90;;;17.27;;
5553;SDS011;2800;49.528;8.666;2022-12-07T13:01:46;22.00;;;18.13;;
5553;SDS011;2800;49.528;8.666;2022-12-07T13:04:17;26.67;;;20.73;;
5553;SDS011;2800;49.528;8.666;2022-12-07T13:06:47;25.10;;;19.40;;
5553;SDS011;2800;49.528;8.666;2022-12-07T13:09:20;27.20;;;18.33;;
5553;SDS011;2800;49.528;8.666;2022-12-07T13:11:49;26.73;;;18.47;;
5553;SDS011;2800;49.528;8.666;2022-12-07T13:17:08;68.53;;;61.17;;
5553;SDS011;2800;49.528;8.666;2022-12-07T13:24:54;24.90;;;19.00;;
5553;SDS011;2800;49.528;8.666;2022-12-07T13:27:25;24.43;;;17.93;;
5553;SDS011;2800;49.528;8.666;2022-12-07T13:29:51;22.67;;;17.00;;
5553;SDS011;2800;49.528;8.666;2022-12-07T13:32:25;24.27;;;16.80;;
5553;SDS011;2800;49.528;8.666;2022-12-07T13:34:52;20.73;;;17.13;;
5553;SDS011;2800;49.528;8.666;2022-12-07T13:40:00;21.70;;;15.30;;
5553;SDS011;2800;49.528;8.666;2022-12-07T13:42:42;20.95;;;15.00;;
5553;SDS011;2800;49.528;8.666;2022-12-07T13:45:21;22.50;;;16.67;;
5553;SDS011;2800;49.528;8.666;2022-12-07T13:48:13;25.43;;;20.10;;
5553;SDS011;2800;49.528;8.666;2022-12-07T13:50:52;25.13;;;17.30;;
5553;SDS011;2800;49.528;8.666;2022-12-07T13:53:19;28.90;;;19.13;;
5553;SDS011;2800;49.528;8.666;2022-12-07T13:55:46;19.57;;;14.47;;
5553;SDS011;2800;49.528;8.666;2022-12-07T13:58:12;20.90;;;13.80;;
5553;SDS011;2800;49.528;8.666;2022-12-07T14:00:39;19.20;;;14.67;;
5553;SDS011;2800;49.528;8.666;2022-12-07T14:05:38;30.30;;;21.27;;
5553;SDS011;2800;49.528;8.666;2022-12-07T14:10:40;14.67;;;9.90;;
5553;SDS011;2800;49.528;8.666;2022-12-07T14:16:01;15.60;;;10.70;;
5553;SDS011;2800;49.528;8.666;2022-12-07T14:18:40;14.93;;;9.60;;
5553;SDS011;2800;49.528;8.666;2022-12-07T14:21:14;14.33;;;9.53;;
5553;SDS011;2800;49.528;8.666;2022-12-07T14:23:42;16.40;;;8.57;;
5553;SDS011;2800;49.528;8.666;2022-12-07T14:26:12;14.10;;;8.50;;
5553;SDS011;2800;49.528;8.666;2022-12-07T14:28:39;11.77;;;7.13;;
5553;SDS011;2800;49.528;8.666;2022-12-07T14:31:10;10.57;;;7.13;;
5553;SDS011;2800;49.528;8.666;2022-12-07T14:33:41;12.27;;;8.40;;
5553;SDS011;2800;49.528;8.666;2022-12-07T14:36:11;23.30;;;12.10;;
5553;SDS011;2800;49.528;8.666;2022-12-07T14:38:37;17.90;;;10.90;;
5553;SDS011;2800;49.528;8.666;2022-12-07T14:41:09;14.83;;;10.33;;
5553;SDS011;2800;49.528;8.666;2022-12-07T14:43:58;21.37;;;12.17;;
5553;SDS011;2800;49.528;8.666;2022-12-07T14:46:24;22.13;;;14.27;;
5553;SDS011;2800;49.528;8.666;2022-12-07T14:48:49;23.10;;;15.73;;
5553;SDS011;2800;49.528;8.666;2022-12-07T14:51:15;39.67;;;23.07;;
5553;SDS011;2800;49.528;8.666;2022-12-07T14:53:44;25.90;;;17.83;;
5553;SDS011;2800;49.528;8.666;2022-12-07T14:56:13;15.40;;;11.23;;
5553;SDS011;2800;49.528;8.666;2022-12-07T14:58:38;17.70;;;12.57;;
5553;SDS011;2800;49.528;8.666;2022-12-07T15:01:05;14.53;;;10.80;;
5553;SDS011;2800;49.528;8.666;2022-12-07T15:03:30;18.87;;;14.50;;
5553;SDS011;2800;49.528;8.666;2022-12-07T15:05:56;23.53;;;17.90;;
5553;SDS011;2800;49.528;8.666;2022-12-07T15:08:21;29.13;;;21.50;;
5553;SDS011;2800;49.528;8.666;2022-12-07T15:10:47;31.87;;;25.40;;
5553;SDS011;2800;49.528;8.666;2022-12-07T15:13:12;46.20;;;37.00;;
5553;SDS011;2800;49.528;8.666;2022-12-07T15:15:56;21.50;;;18.57;;
5553;SDS011;2800;49.528;8.666;2022-12-07T15:18:22;30.30;;;24.70;;
5553;SDS011;2800;49.528;8.666;2022-12-07T15:20:49;32.80;;;24.50;;
5553;SDS011;2800;49.528;8.666;2022-12-07T15:23:15;33.50;;;28.97;;
5553;SDS011;2800;49.528;8.666;2022-12-07T15:25:44;32.23;;;26.50;;
5553;SDS011;2800;49.528;8.666;2022-12-07T15:28:11;31.03;;;24.10;;
5553;SDS011;2800;49.528;8.666;2022-12-07T15:30:37;34.27;;;24.50;;
5553;SDS011;2800;49.528;8.666;2022-12-07T15:33:03;32.63;;;26.73;;
5553;SDS011;2800;49.528;8.666;2022-12-07T15:35:29;30.87;;;25.87;;
5553;SDS011;2800;49.528;8.666;2022-12-07T15:37:54;32.47;;;22.70;;
5553;SDS011;2800;49.528;8.666;2022-12-07T15:40:20;27.60;;;17.73;;
5553;SDS011;2800;49.528;8.666;2022-12-07T15:42:46;24.97;;;15.50;;
5553;SDS011;2800;49.528;8.666;2022-12-07T15:45:11;16.67;;;10.30;;
5553;SDS011;2800;49.528;8.666;2022-12-07T15:47:40;16.43;;;9.40;;
5553;SDS011;2800;49.528;8.666;2022-12-07T15:50:09;13.40;;;10.03;;
5553;SDS011;2800;49.528;8.666;2022-12-07T15:52:37;16.83;;;10.80;;
5553;SDS011;2800;49.528;8.666;2022-12-07T15:55:03;19.40;;;12.83;;
5553;SDS011;2800;49.528;8.666;2022-12-07T15:57:29;14.80;;;9.53;;
5553;SDS011;2800;49.528;8.666;2022-12-07T15:59:56;19.70;;;13.00;;
5553;SDS011;2800;49.528;8.666;2022-12-07T16:02:22;19.80;;;10.90;;
5553;SDS011;2800;49.528;8.666;2022-12-07T16:04:48;19.17;;;13.13;;
5553;SDS011;2800;49.528;8.666;2022-12-07T16:07:14;17.87;;;13.73;;
5553;SDS011;2800;49.528;8.666;2022-12-07T16:09:41;15.37;;;9.80;;
5553;SDS011;2800;49.528;8.666;2022-12-07T16:12:07;20.93;;;11.73;;
5553;SDS011;2800;49.528;8.666;2022-12-07T16:14:33;16.00;;;9.40;;
5553;SDS011;2800;49.528;8.666;2022-12-07T16:16:58;14.50;;;8.70;;
5553;SDS011;2800;49.528;8.666;2022-12-07T16:19:24;13.90;;;10.47;;
5553;SDS011;2800;49.528;8.666;2022-12-07T16:21:50;13.20;;;8.63;;
5553;SDS011;2800;49.528;8.666;2022-12-07T16:24:15;13.30;;;9.10;;
5553;SDS011;2800;49.528;8.666;2022-12-07T16:26:41;15.67;;;9.03;;
5553;SDS011;2800;49.528;8.666;2022-12-07T16:29:09;15.23;;;9.60;;
5553;SDS011;2800;49.528;8.666;2022-12-07T16:31:39;15.37;;;10.40;;
5553;SDS011;2800;49.528;8.666;2022-12-07T16:34:04;13.00;;;9.70;;
5553;SDS011;2800;49.528;8.666;2022-12-07T16:36:30;12.30;;;9.07;;
5553;SDS011;2800;49.528;8.666;2022-12-07T16:38:57;17.07;;;11.07;;
5553;SDS011;2800;49.528;8.666;2022-12-07T16:41:23;18.17;;;10.73;;
5553;SDS011;2800;49.528;8.666;2022-12-07T16:43:49;15.73;;;11.27;;
5553;SDS011;2800;49.528;8.666;2022-12-07T16:46:15;15.27;;;11.80;;